Terminal Aerodrome Forecast
Issued by NWS

Home | Current Version | Previous Version | Text Only | Print | Product List | Glossary On
Versions: 1 2 3 4 5 6 7 8 9 10 11 12 13 14 15 16 17 18 19 20 21 22 23 24 25 26 27
000
FTUS43 KDTX 171426 AAA
TAFYIP
TAF AMD
KYIP 171426Z 1714/1812 17009KT 6SM BR SCT035 BKN060
     FM171600 19012KT 5SM SHRA BR BKN018 OVC040
      TEMPO 1719/1723 1 1/2SM +TSRA BKN028CB OVC080
     FM172300 21010KT P6SM SCT030 BKN045
     FM180800 22008KT P6SM SCT022=

USA.gov is the U.S. government's official web portal to all federal, state and local government web resources and services.